Time;durP1;ratioP1;P1;durP2;ratioP2;P2;SDS_P1;SDS_P2;PMS_P1;PMS_P2;Temp;Humidity;BMP_temperature;BMP_pressure;BME280_temperature;BME280_humidity;BME280_pressure;Samples;Min_cycle;Max_cycle;Signal;HPM_P1;HPM_P2
2022/03/31 00:00:46;;;;;;;;;;;21.30;41.80;;;;;;5096250;28;19973;-42
2022/03/31 00:03:15;;;;;;;;;;;21.30;41.70;;;;;;5096270;28;19932;-46
2022/03/31 00:05:42;;;;;;;;;;;21.30;41.70;;;;;;5095464;28;20287;-45
2022/03/31 00:08:09;;;;;;;;;;;21.30;41.80;;;;;;5095596;28;19943;-46
2022/03/31 00:10:38;;;;;;;;;;;21.30;41.80;;;;;;5095451;28;19931;-49
2022/03/31 00:13:07;;;;;;;;;;;21.30;41.80;;;;;;5095766;28;19928;-47
2022/03/31 00:15:34;;;;;;;;;;;21.30;41.70;;;;;;5096264;28;19924;-50
2022/03/31 00:18:03;;;;;;;;;;;21.30;41.80;;;;;;5095862;28;19924;-49
2022/03/31 00:20:30;;;;;;;;;;;21.30;41.80;;;;;;5095302;28;19924;-46
2022/03/31 00:22:57;;;;;;;;;;;21.30;41.80;;;;;;5096098;28;19985;-45
2022/03/31 00:25:24;;;;;;;;;;;21.30;41.80;;;;;;5095886;28;19974;-50
2022/03/31 00:27:51;;;;;;;;;;;21.30;41.80;;;;;;5095665;28;19977;-46
2022/03/31 00:30:18;;;;;;;;;;;21.30;41.80;;;;;;5078085;28;19947;-47
2022/03/31 00:32:45;;;;;;;;;;;21.30;41.80;;;;;;5095577;28;19954;-48
2022/03/31 00:35:13;;;;;;;;;;;21.30;41.70;;;;;;5095772;28;20288;-42
2022/03/31 00:37:41;;;;;;;;;;;21.30;41.80;;;;;;5094704;28;19928;-43
2022/03/31 00:40:09;;;;;;;;;;;21.30;41.80;;;;;;5095405;28;19924;-46
2022/03/31 00:42:40;;;;;;;;;;;21.30;41.80;;;;;;5095451;28;19950;-43
2022/03/31 00:45:13;;;;;;;;;;;21.30;41.80;;;;;;5095326;28;19985;-49
2022/03/31 00:47:40;;;;;;;;;;;21.30;41.70;;;;;;5095211;28;19985;-48
2022/03/31 00:50:08;;;;;;;;;;;21.30;41.80;;;;;;5095265;28;20395;-42
2022/03/31 00:52:35;;;;;;;;;;;21.30;41.70;;;;;;5093784;28;19928;-44
2022/03/31 00:55:05;;;;;;;;;;;21.30;41.70;;;;;;5095331;28;19963;-45
2022/03/31 00:57:33;;;;;;;;;;;21.30;41.80;;;;;;5095428;28;19970;-42
2022/03/31 01:00:00;;;;;;;;;;;21.30;41.80;;;;;;5077132;28;20372;-50
2022/03/31 01:02:31;;;;;;;;;;;21.30;41.80;;;;;;5095034;28;19997;-43
2022/03/31 01:05:00;;;;;;;;;;;21.30;41.80;;;;;;5095272;28;19931;-48
2022/03/31 01:07:27;;;;;;;;;;;21.30;41.80;;;;;;5094011;28;19970;-47
2022/03/31 01:09:56;;;;;;;;;;;21.30;41.80;;;;;;5094826;28;19946;-43
2022/03/31 01:12:23;;;;;;;;;;;21.30;41.80;;;;;;5076665;28;19928;-42
2022/03/31 01:15:05;;;;;;;;;;;21.30;41.80;;;;;;5095087;28;20014;-42
2022/03/31 01:17:36;;;;;;;;;;;21.30;41.80;;;;;;5095025;28;19977;-44
2022/03/31 01:20:05;;;;;;;;;;;21.20;41.80;;;;;;5094221;28;19989;-47
2022/03/31 01:22:33;;;;;;;;;;;21.20;41.80;;;;;;5075117;28;20287;-44
2022/03/31 01:25:00;;;;;;;;;;;21.20;41.80;;;;;;5094873;28;20269;-42
2022/03/31 01:27:27;;;;;;;;;;;21.30;41.80;;;;;;5094754;28;19993;-42
2022/03/31 01:29:55;;;;;;;;;;;21.20;41.80;;;;;;5094207;28;19924;-42
2022/03/31 01:32:22;;;;;;;;;;;21.20;41.80;;;;;;5094439;28;19924;-41
2022/03/31 01:34:49;;;;;;;;;;;21.30;41.80;;;;;;5095232;28;19924;-42
2022/03/31 01:37:16;;;;;;;;;;;21.20;41.70;;;;;;5085215;28;19951;-42
2022/03/31 01:39:43;;;;;;;;;;;21.20;41.80;;;;;;5074052;28;19924;-44
2022/03/31 01:42:10;;;;;;;;;;;21.20;41.80;;;;;;5074042;28;19925;-42
2022/03/31 01:44:38;;;;;;;;;;;21.20;41.80;;;;;;5073961;28;19929;-41
2022/03/31 01:47:05;;;;;;;;;;;21.20;41.80;;;;;;5073907;28;19986;-43
2022/03/31 01:49:32;;;;;;;;;;;21.20;41.80;;;;;;5073784;28;19924;-42
2022/03/31 01:51:59;;;;;;;;;;;21.20;41.80;;;;;;5074071;28;19985;-43
2022/03/31 01:54:26;;;;;;;;;;;21.20;41.80;;;;;;5073798;28;19925;-42
2022/03/31 01:56:54;;;;;;;;;;;21.20;41.80;;;;;;5073413;28;20430;-42
2022/03/31 01:59:21;;;;;;;;;;;21.20;41.80;;;;;;5073731;28;19972;-44
2022/03/31 02:01:48;;;;;;;;;;;21.20;41.80;;;;;;5073720;28;19924;-43
2022/03/31 02:04:18;;;;;;;;;;;21.20;41.80;;;;;;5056440;28;19924;-42
2022/03/31 02:06:45;;;;;;;;;;;21.20;41.80;;;;;;5075286;28;20023;-43
2022/03/31 02:09:12;;;;;;;;;;;21.20;41.80;;;;;;5075602;28;19967;-42
2022/03/31 02:11:40;;;;;;;;;;;21.20;41.80;;;;;;5094130;28;20326;-42
2022/03/31 02:14:07;;;;;;;;;;;21.20;41.80;;;;;;5093750;28;19924;-43
2022/03/31 02:16:34;;;;;;;;;;;21.20;41.80;;;;;;5093726;28;19974;-42
2022/03/31 02:19:01;;;;;;;;;;;21.20;41.80;;;;;;5094025;28;20014;-42
2022/03/31 02:21:28;;;;;;;;;;;21.20;41.80;;;;;;5093415;28;19963;-41
2022/03/31 02:23:55;;;;;;;;;;;21.20;41.80;;;;;;5092631;28;19930;-43
2022/03/31 02:26:22;;;;;;;;;;;21.20;41.80;;;;;;5093795;28;19924;-42
2022/03/31 02:28:49;;;;;;;;;;;21.20;41.80;;;;;;5093844;28;19969;-43
2022/03/31 02:31:16;;;;;;;;;;;21.20;41.80;;;;;;5075618;28;19946;-42
2022/03/31 02:33:43;;;;;;;;;;;21.20;41.80;;;;;;5093578;28;20015;-42
2022/03/31 02:36:11;;;;;;;;;;;21.20;41.80;;;;;;5093850;28;19924;-43
2022/03/31 02:38:37;;;;;;;;;;;21.20;41.80;;;;;;5092332;28;19924;-43
2022/03/31 02:41:05;;;;;;;;;;;21.20;41.80;;;;;;5093419;28;19924;-43
2022/03/31 02:43:32;;;;;;;;;;;21.20;41.80;;;;;;5093774;28;19924;-43
2022/03/31 02:45:59;;;;;;;;;;;21.20;41.80;;;;;;5093426;28;19924;-42
2022/03/31 02:48:26;;;;;;;;;;;21.20;41.80;;;;;;5093358;28;19970;-42
2022/03/31 02:50:53;;;;;;;;;;;21.20;41.80;;;;;;5092914;28;19927;-43
2022/03/31 02:56:05;;;;;;;;;;;21.20;41.80;;;;;;5093568;28;19924;-43
2022/03/31 02:58:32;;;;;;;;;;;21.20;41.90;;;;;;5093353;28;19924;-42
2022/03/31 03:01:00;;;;;;;;;;;21.20;41.90;;;;;;5093335;28;19932;-44
2022/03/31 03:03:28;;;;;;;;;;;21.20;41.80;;;;;;5094069;28;19954;-42
2022/03/31 03:05:55;;;;;;;;;;;21.20;41.80;;;;;;5093499;28;19955;-43
2022/03/31 03:08:23;;;;;;;;;;;21.20;41.80;;;;;;5092132;28;19974;-43
2022/03/31 03:10:50;;;;;;;;;;;21.20;41.90;;;;;;5093177;28;19924;-43
2022/03/31 03:13:17;;;;;;;;;;;21.20;41.90;;;;;;5093145;28;20372;-42
2022/03/31 03:15:45;;;;;;;;;;;21.20;41.90;;;;;;5093188;28;19970;-43
2022/03/31 03:18:13;;;;;;;;;;;21.20;41.90;;;;;;5093431;28;20342;-46
2022/03/31 03:20:40;;;;;;;;;;;21.20;41.90;;;;;;5092699;28;20325;-42
2022/03/31 03:23:07;;;;;;;;;;;21.20;41.90;;;;;;5092604;28;19931;-42
2022/03/31 03:25:34;;;;;;;;;;;21.20;42.50;;;;;;5082686;28;20345;-46
2022/03/31 03:28:01;;;;;;;;;;;21.20;41.90;;;;;;5072838;28;19925;-50
2022/03/31 03:30:28;;;;;;;;;;;21.20;41.90;;;;;;5074009;28;20291;-45
2022/03/31 03:32:55;;;;;;;;;;;21.20;41.90;;;;;;5072606;28;19925;-47
2022/03/31 03:35:22;;;;;;;;;;;21.20;41.90;;;;;;5072810;28;19925;-43
2022/03/31 03:37:49;;;;;;;;;;;21.20;41.90;;;;;;5075981;28;19928;-47
2022/03/31 03:40:16;;;;;;;;;;;21.20;41.90;;;;;;5093263;28;19924;-41
2022/03/31 03:42:43;;;;;;;;;;;21.20;41.90;;;;;;5092966;28;19950;-46
2022/03/31 03:45:13;;;;;;;;;;;21.20;42.50;;;;;;5076908;28;20015;-42
2022/03/31 03:47:40;;;;;;;;;;;21.20;41.90;;;;;;5096213;28;19963;-42
2022/03/31 03:50:07;;;;;;;;;;;21.20;41.90;;;;;;5096369;28;20288;-47
2022/03/31 03:52:34;;;;;;;;;;;21.20;41.90;;;;;;5096122;28;19924;-42
2022/03/31 03:55:01;;;;;;;;;;;21.20;41.90;;;;;;5095832;28;19925;-42
2022/03/31 03:57:28;;;;;;;;;;;21.20;41.90;;;;;;5096363;28;19924;-43
2022/03/31 03:59:56;;;;;;;;;;;21.20;42.00;;;;;;5096557;28;19931;-44
2022/03/31 04:02:22;;;;;;;;;;;21.20;41.90;;;;;;5096237;28;19928;-47
2022/03/31 04:04:49;;;;;;;;;;;21.20;41.90;;;;;;5096419;28;19962;-45
2022/03/31 04:07:17;;;;;;;;;;;21.20;41.90;;;;;;5096202;28;19924;-43
2022/03/31 04:09:43;;;;;;;;;;;21.20;41.90;;;;;;5095158;28;19932;-41
2022/03/31 04:12:10;;;;;;;;;;;21.20;42.00;;;;;;5078100;28;19924;-42
2022/03/31 04:14:37;;;;;;;;;;;21.20;42.60;;;;;;5096298;28;20369;-42
2022/03/31 04:17:04;;;;;;;;;;;21.20;41.90;;;;;;5095592;28;19932;-42
2022/03/31 04:19:31;;;;;;;;;;;21.20;42.00;;;;;;5095666;28;20367;-44
2022/03/31 04:21:58;;;;;;;;;;;21.10;41.90;;;;;;5084326;28;19925;-42
2022/03/31 04:24:25;;;;;;;;;;;21.10;41.90;;;;;;5087845;28;19924;-42
2022/03/31 04:26:52;;;;;;;;;;;21.10;41.90;;;;;;5095685;28;20384;-44
2022/03/31 04:29:19;;;;;;;;;;;21.20;42.00;;;;;;5095948;28;19924;-42
2022/03/31 04:31:46;;;;;;;;;;;21.10;41.90;;;;;;5095699;28;20406;-45
2022/03/31 04:34:15;;;;;;;;;;;21.20;42.00;;;;;;5096468;28;19924;-43
2022/03/31 04:36:42;;;;;;;;;;;21.20;42.00;;;;;;5077380;28;19925;-43
2022/03/31 04:39:14;;;;;;;;;;;21.10;41.90;;;;;;5094979;28;19924;-44
2022/03/31 04:41:43;;;;;;;;;;;21.20;42.00;;;;;;5095723;28;19959;-42
2022/03/31 04:44:10;;;;;;;;;;;21.20;42.00;;;;;;5095638;28;19962;-45
2022/03/31 04:46:37;;;;;;;;;;;21.20;42.50;;;;;;5095092;28;20393;-49
2022/03/31 04:49:05;;;;;;;;;;;21.10;41.90;;;;;;5095512;28;20386;-43
2022/03/31 04:51:32;;;;;;;;;;;21.20;41.90;;;;;;5095378;28;20015;-47
2022/03/31 04:53:59;;;;;;;;;;;21.20;41.90;;;;;;5094675;28;19978;-44
2022/03/31 04:56:26;;;;;;;;;;;21.20;41.90;;;;;;5094918;28;19974;-45
2022/03/31 04:58:53;;;;;;;;;;;21.20;41.90;;;;;;5095095;28;20401;-44
2022/03/31 05:01:22;;;;;;;;;;;21.10;41.80;;;;;;5094976;28;20372;-45
2022/03/31 05:03:49;;;;;;;;;;;21.20;41.90;;;;;;5095257;28;20291;-50
2022/03/31 05:06:17;;;;;;;;;;;21.20;41.90;;;;;;5094865;28;19924;-43
2022/03/31 05:08:44;;;;;;;;;;;21.20;41.90;;;;;;5093657;28;19975;-48
2022/03/31 05:11:11;;;;;;;;;;;21.20;41.90;;;;;;5077342;28;19931;-51
2022/03/31 05:13:38;;;;;;;;;;;21.20;41.90;;;;;;5094809;28;19973;-45
2022/03/31 05:16:05;;;;;;;;;;;21.10;41.80;;;;;;5095103;28;19935;-49
2022/03/31 05:18:32;;;;;;;;;;;21.20;41.90;;;;;;5094466;28;19968;-44
2022/03/31 05:20:59;;;;;;;;;;;21.20;41.90;;;;;;5094375;28;19924;-42
2022/03/31 05:23:28;;;;;;;;;;;21.20;41.90;;;;;;5094560;28;19982;-49
2022/03/31 05:25:55;;;;;;;;;;;21.20;41.90;;;;;;5075786;28;20027;-47
2022/03/31 05:28:22;;;;;;;;;;;21.20;41.90;;;;;;5094260;28;19931;-44
2022/03/31 05:30:49;;;;;;;;;;;21.20;41.90;;;;;;5094299;28;19954;-45
2022/03/31 05:33:17;;;;;;;;;;;21.10;41.80;;;;;;5094397;28;19924;-44
2022/03/31 05:35:44;;;;;;;;;;;21.20;41.80;;;;;;5094699;28;19978;-50
2022/03/31 05:38:11;;;;;;;;;;;21.20;41.90;;;;;;5094371;28;19970;-47
2022/03/31 05:40:38;;;;;;;;;;;21.20;41.80;;;;;;5075744;28;19971;-43
2022/03/31 05:43:05;;;;;;;;;;;21.20;41.80;;;;;;5094540;28;19928;-46
2022/03/31 05:45:35;;;;;;;;;;;21.20;42.00;;;;;;5094520;28;20303;-45
2022/03/31 05:48:02;;;;;;;;;;;21.20;41.80;;;;;;5094514;28;19928;-45
2022/03/31 05:50:29;;;;;;;;;;;21.20;41.80;;;;;;5094182;28;19924;-51
2022/03/31 05:52:56;;;;;;;;;;;21.20;41.80;;;;;;5093785;28;19924;-42
2022/03/31 05:55:23;;;;;;;;;;;21.20;41.80;;;;;;5092955;28;19924;-46
2022/03/31 05:57:50;;;;;;;;;;;21.20;41.80;;;;;;5093982;28;20441;-49
2022/03/31 06:00:18;;;;;;;;;;;21.20;41.80;;;;;;5094246;28;19931;-51
2022/03/31 06:02:49;;;;;;;;;;;21.20;41.80;;;;;;5093935;28;20417;-46
2022/03/31 06:05:18;;;;;;;;;;;21.20;41.80;;;;;;5093613;28;20009;-50
2022/03/31 06:07:45;;;;;;;;;;;21.20;41.80;;;;;;5093344;28;20452;-49
2022/03/31 06:10:13;;;;;;;;;;;21.20;41.80;;;;;;5092901;28;19958;-46
2022/03/31 06:12:40;;;;;;;;;;;21.20;41.80;;;;;;5094104;28;19928;-51
2022/03/31 06:15:07;;;;;;;;;;;21.20;41.80;;;;;;5094041;28;20001;-44
2022/03/31 06:17:35;;;;;;;;;;;21.20;41.80;;;;;;5093583;28;20398;-48
2022/03/31 06:20:02;;;;;;;;;;;21.20;41.70;;;;;;5093274;28;19924;-46
2022/03/31 06:22:29;;;;;;;;;;;21.20;41.80;;;;;;5093685;28;19978;-44
2022/03/31 06:24:56;;;;;;;;;;;21.20;41.70;;;;;;5093022;28;20334;-50
2022/03/31 06:27:23;;;;;;;;;;;21.20;41.70;;;;;;5093582;28;19929;-42
2022/03/31 06:29:52;;;;;;;;;;;21.20;41.80;;;;;;5093820;28;19946;-42
2022/03/31 06:32:19;;;;;;;;;;;21.20;41.70;;;;;;5093240;28;19969;-50
2022/03/31 06:34:46;;;;;;;;;;;21.20;41.70;;;;;;5093846;28;19924;-47
2022/03/31 06:37:13;;;;;;;;;;;21.20;41.70;;;;;;5093808;28;19924;-43
2022/03/31 06:39:41;;;;;;;;;;;21.20;41.70;;;;;;5092954;28;20877;-44
2022/03/31 06:42:10;;;;;;;;;;;21.20;41.70;;;;;;5093172;28;19931;-43
2022/03/31 06:44:37;;;;;;;;;;;21.20;41.70;;;;;;5093596;28;19924;-44
2022/03/31 06:47:05;;;;;;;;;;;21.20;41.80;;;;;;5093400;28;20410;-44
2022/03/31 06:49:34;;;;;;;;;;;21.20;41.70;;;;;;5093611;28;19924;-47
2022/03/31 06:52:01;;;;;;;;;;;21.20;41.70;;;;;;5093187;28;20392;-51
2022/03/31 06:54:30;;;;;;;;;;;21.30;41.80;;;;;;5093421;28;19924;-47
2022/03/31 06:56:57;;;;;;;;;;;21.20;41.70;;;;;;5071447;28;19978;-45
2022/03/31 06:59:24;;;;;;;;;;;21.20;41.70;;;;;;5073054;28;19931;-43
2022/03/31 07:01:51;;;;;;;;;;;21.30;41.80;;;;;;5073386;28;19928;-46
2022/03/31 07:04:19;;;;;;;;;;;21.30;41.80;;;;;;5072882;28;20303;-45
2022/03/31 07:06:46;;;;;;;;;;;21.30;41.70;;;;;;5073302;28;19974;-44
2022/03/31 07:09:13;;;;;;;;;;;21.30;41.70;;;;;;5072978;28;19925;-44
2022/03/31 07:11:40;;;;;;;;;;;21.30;41.70;;;;;;5071111;28;19924;-41
2022/03/31 07:14:07;;;;;;;;;;;21.30;41.70;;;;;;5093156;28;19924;-46
2022/03/31 07:16:34;;;;;;;;;;;21.30;41.70;;;;;;5093947;28;19950;-43
2022/03/31 07:19:03;;;;;;;;;;;21.30;41.70;;;;;;5093120;28;19924;-43
2022/03/31 07:21:32;;;;;;;;;;;21.30;41.70;;;;;;5096938;28;19924;-47
2022/03/31 07:24:01;;;;;;;;;;;21.30;41.70;;;;;;5097086;28;20294;-43
2022/03/31 07:26:29;;;;;;;;;;;21.30;41.70;;;;;;5095860;28;20439;-46
2022/03/31 07:28:56;;;;;;;;;;;21.30;41.70;;;;;;5097108;28;19924;-46
2022/03/31 07:31:26;;;;;;;;;;;21.30;41.70;;;;;;5097012;28;19931;-49
2022/03/31 07:33:54;;;;;;;;;;;21.30;41.60;;;;;;5096488;28;20324;-50
2022/03/31 07:36:21;;;;;;;;;;;21.30;41.60;;;;;;5096741;28;19931;-52
2022/03/31 07:38:48;;;;;;;;;;;21.30;41.60;;;;;;5097035;28;20287;-44
2022/03/31 07:41:15;;;;;;;;;;;21.30;41.60;;;;;;5095798;28;19985;-49
2022/03/31 07:43:43;;;;;;;;;;;21.30;41.60;;;;;;5097717;28;19955;-50
2022/03/31 07:46:10;;;;;;;;;;;21.30;41.60;;;;;;5096236;28;19931;-46
2022/03/31 07:48:37;;;;;;;;;;;21.30;41.50;;;;;;5096805;28;19979;-44
2022/03/31 07:51:04;;;;;;;;;;;21.30;41.50;;;;;;5096453;28;19994;-44
2022/03/31 07:53:33;;;;;;;;;;;21.30;41.50;;;;;;5096381;28;19924;-43
2022/03/31 07:56:01;;;;;;;;;;;21.30;41.50;;;;;;5095307;28;19924;-44
2022/03/31 07:58:29;;;;;;;;;;;21.40;41.50;;;;;;5096551;28;19931;-43
2022/03/31 08:00:56;;;;;;;;;;;21.40;41.50;;;;;;5096301;28;20295;-47
2022/03/31 08:03:23;;;;;;;;;;;21.40;41.50;;;;;;5096185;28;19924;-46
2022/03/31 08:05:51;;;;;;;;;;;21.40;41.50;;;;;;5096477;28;19931;-46
2022/03/31 08:08:20;;;;;;;;;;;21.40;41.50;;;;;;5095864;28;19947;-46
2022/03/31 08:10:49;;;;;;;;;;;21.40;41.50;;;;;;5084090;28;19927;-48
2022/03/31 08:13:24;;;;;;;;;;;21.40;41.50;;;;;;5094848;28;19924;-47
2022/03/31 08:15:55;;;;;;;;;;;21.40;41.50;;;;;;5077613;28;19924;-43
2022/03/31 08:18:26;;;;;;;;;;;21.40;41.40;;;;;;5091383;28;20015;-42
2022/03/31 08:20:53;;;;;;;;;;;21.40;41.50;;;;;;5094752;28;20295;-42
2022/03/31 08:23:20;;;;;;;;;;;21.40;41.40;;;;;;5090300;28;19931;-41
2022/03/31 08:25:47;;;;;;;;;;;21.40;41.30;;;;;;5093891;28;19932;-46
2022/03/31 08:28:15;;;;;;;;;;;21.50;41.40;;;;;;5063761;28;19924;-49
2022/03/31 08:30:43;;;;;;;;;;;21.50;41.40;;;;;;5094096;28;19939;-41
2022/03/31 08:33:11;;;;;;;;;;;21.50;41.30;;;;;;5073810;28;19931;-41
2022/03/31 08:35:43;;;;;;;;;;;21.50;41.30;;;;;;5074209;28;19924;-41
2022/03/31 08:38:10;;;;;;;;;;;21.50;41.30;;;;;;5074077;28;19936;-41
2022/03/31 08:40:42;;;;;;;;;;;21.60;41.30;;;;;;5073930;28;19932;-44
2022/03/31 08:43:09;;;;;;;;;;;21.60;41.30;;;;;;5076718;28;19932;-43
2022/03/31 08:45:40;;;;;;;;;;;21.60;41.20;;;;;;5094335;28;19931;-41
2022/03/31 08:48:07;;;;;;;;;;;21.60;41.10;;;;;;5094544;28;19930;-44
2022/03/31 08:50:35;;;;;;;;;;;21.60;41.10;;;;;;5094188;28;20025;-44
2022/03/31 08:53:03;;;;;;;;;;;21.70;41.10;;;;;;5094436;28;20273;-43
2022/03/31 08:55:30;;;;;;;;;;;21.70;41.10;;;;;;5094364;28;20280;-44
2022/03/31 08:57:58;;;;;;;;;;;21.70;41.00;;;;;;5093531;28;19924;-42
2022/03/31 09:00:26;;;;;;;;;;;21.70;40.90;;;;;;5094618;28;20014;-43
2022/03/31 09:02:53;;;;;;;;;;;21.70;40.90;;;;;;5094472;28;20344;-43
2022/03/31 09:05:20;;;;;;;;;;;21.80;40.90;;;;;;5093613;28;19924;-42
2022/03/31 09:08:07;;;;;;;;;;;21.80;40.90;;;;;;5094429;28;19925;-43
2022/03/31 09:10:34;;;;;;;;;;;21.80;40.90;;;;;;5076420;28;19925;-42
2022/03/31 09:13:03;;;;;;;;;;;21.80;40.80;;;;;;5093272;28;19977;-41
2022/03/31 09:15:32;;;;;;;;;;;21.80;40.70;;;;;;5094221;28;20019;-42
2022/03/31 09:18:01;;;;;;;;;;;21.90;40.70;;;;;;5076021;28;19967;-41
2022/03/31 09:20:35;;;;;;;;;;;21.90;40.70;;;;;;5093503;28;19978;-42
2022/03/31 09:23:03;;;;;;;;;;;21.90;40.70;;;;;;5094095;28;20435;-42
2022/03/31 09:25:32;;;;;;;;;;;22.00;40.70;;;;;;5093942;28;20341;-42
2022/03/31 09:28:01;;;;;;;;;;;22.00;40.70;;;;;;5093461;28;19924;-41
2022/03/31 09:30:31;;;;;;;;;;;22.00;40.70;;;;;;5093694;28;19978;-41
2022/03/31 09:33:02;;;;;;;;;;;22.00;40.70;;;;;;5076269;28;19931;-41
2022/03/31 09:35:29;;;;;;;;;;;22.00;40.60;;;;;;5093926;28;20337;-41
2022/03/31 09:37:58;;;;;;;;;;;22.00;40.60;;;;;;5093975;28;19931;-43
2022/03/31 09:40:35;;;;;;;;;;;22.00;40.60;;;;;;5093501;28;19928;-42
2022/03/31 09:43:02;;;;;;;;;;;22.00;40.60;;;;;;5092384;28;20303;-43
2022/03/31 09:45:38;;;;;;;;;;;22.00;40.50;;;;;;5093359;28;19932;-42
2022/03/31 09:48:08;;;;;;;;;;;22.10;40.60;;;;;;5075575;28;19928;-41
2022/03/31 09:50:36;;;;;;;;;;;22.10;40.60;;;;;;5075578;28;19934;-41
2022/03/31 09:53:03;;;;;;;;;;;22.10;40.60;;;;;;5093667;28;19927;-41
2022/03/31 09:55:31;;;;;;;;;;;22.10;40.50;;;;;;5093222;28;19978;-43
2022/03/31 09:57:59;;;;;;;;;;;22.10;40.50;;;;;;5092703;28;19931;-42
2022/03/31 10:00:27;;;;;;;;;;;22.10;40.50;;;;;;5092986;28;19924;-42
2022/03/31 10:02:54;;;;;;;;;;;22.10;40.50;;;;;;5093264;28;19931;-43
2022/03/31 10:05:39;;;;;;;;;;;22.10;40.50;;;;;;5093064;28;19924;-42
2022/03/31 10:08:08;;;;;;;;;;;22.10;40.60;;;;;;5093072;28;19938;-41
2022/03/31 10:10:37;;;;;;;;;;;22.10;40.60;;;;;;5093115;28;20380;-42
2022/03/31 10:13:15;;;;;;;;;;;22.10;40.50;;;;;;5092451;28;19924;-42
2022/03/31 10:15:43;;;;;;;;;;;22.10;40.50;;;;;;5093592;28;20031;-41
2022/03/31 10:18:14;;;;;;;;;;;22.10;40.50;;;;;;5093219;28;19930;-42
2022/03/31 10:20:57;;;;;;;;;;;22.10;40.50;;;;;;5093062;28;20015;-42
2022/03/31 10:26:27;;;;;;;;;;;22.10;40.50;;;;;;5092660;28;19928;-42
2022/03/31 10:28:59;;;;;;;;;;;22.10;40.50;;;;;;5092105;28;19946;-41
2022/03/31 10:31:33;;;;;;;;;;;22.10;41.10;;;;;;5092672;28;20025;-41
2022/03/31 10:34:00;;;;;;;;;;;22.20;40.60;;;;;;5092505;28;20292;-41
2022/03/31 10:36:48;;;;;;;;;;;22.10;40.50;;;;;;5092646;28;19931;-43
2022/03/31 10:39:19;;;;;;;;;;;22.10;40.40;;;;;;5089680;28;20379;-42
2022/03/31 10:41:47;;;;;;;;;;;22.20;40.50;;;;;;5073062;28;19994;-40
2022/03/31 10:44:14;;;;;;;;;;;22.20;40.50;;;;;;5077128;28;19931;-42
2022/03/31 10:46:42;;;;;;;;;;;22.20;40.50;;;;;;5072623;28;19924;-43
2022/03/31 10:49:12;;;;;;;;;;;22.20;40.50;;;;;;5073328;28;19925;-43
2022/03/31 10:51:43;;;;;;;;;;;22.20;40.40;;;;;;5073174;28;19925;-42
2022/03/31 10:54:22;;;;;;;;;;;22.20;40.40;;;;;;5075055;28;20384;-44
2022/03/31 10:56:49;;;;;;;;;;;22.20;40.40;;;;;;5077046;28;19979;-41
2022/03/31 10:59:17;;;;;;;;;;;22.20;40.40;;;;;;5094977;28;20338;-41
2022/03/31 11:01:45;;;;;;;;;;;22.30;40.40;;;;;;5084381;28;19924;-41
2022/03/31 11:04:13;;;;;;;;;;;22.30;40.40;;;;;;5080283;28;19970;-42
2022/03/31 11:06:55;;;;;;;;;;;22.30;40.40;;;;;;5085330;28;19932;-43
2022/03/31 11:09:26;;;;;;;;;;;22.30;40.40;;;;;;5097266;28;19924;-43
2022/03/31 11:11:55;;;;;;;;;;;22.30;40.40;;;;;;5081621;28;19970;-47
2022/03/31 11:14:23;;;;;;;;;;;22.30;40.40;;;;;;5096071;28;20015;-46
2022/03/31 11:16:50;;;;;;;;;;;22.30;40.40;;;;;;5082844;28;19977;-44
2022/03/31 11:19:19;;;;;;;;;;;22.30;40.50;;;;;;5077400;28;19925;-45
2022/03/31 11:21:47;;;;;;;;;;;22.30;40.40;;;;;;5076562;28;19935;-48
2022/03/31 11:24:14;;;;;;;;;;;22.20;41.00;;;;;;5059310;28;19931;-44
2022/03/31 11:26:44;;;;;;;;;;;22.30;40.50;;;;;;5076314;28;20012;-46
2022/03/31 11:29:14;;;;;;;;;;;22.30;40.50;;;;;;5090632;28;19971;-43
2022/03/31 11:31:48;;;;;;;;;;;22.30;40.50;;;;;;5096776;28;20102;-44
2022/03/31 11:34:22;;;;;;;;;;;22.30;40.50;;;;;;5097515;28;19928;-45
2022/03/31 11:36:51;;;;;;;;;;;22.30;40.50;;;;;;5096868;28;19970;-46
2022/03/31 11:39:19;;;;;;;;;;;22.30;40.50;;;;;;5097007;28;19925;-46
2022/03/31 11:41:46;;;;;;;;;;;22.30;40.50;;;;;;5096989;28;19932;-44
2022/03/31 11:44:19;;;;;;;;;;;22.30;40.50;;;;;;5095761;28;19924;-45
2022/03/31 11:46:48;;;;;;;;;;;22.30;40.50;;;;;;5096330;28;19981;-45
2022/03/31 11:49:20;;;;;;;;;;;22.30;41.10;;;;;;5096531;28;19924;-43
2022/03/31 11:51:48;;;;;;;;;;;22.30;40.50;;;;;;5096497;28;19935;-43
2022/03/31 11:54:15;;;;;;;;;;;22.30;40.50;;;;;;5096432;28;20295;-45
2022/03/31 11:56:42;;;;;;;;;;;22.30;40.50;;;;;;5096359;28;19925;-43
2022/03/31 11:59:09;;;;;;;;;;;22.40;40.50;;;;;;5095511;28;19924;-45
2022/03/31 12:01:43;;;;;;;;;;;22.40;40.50;;;;;;5096280;28;19932;-46
2022/03/31 12:04:17;;;;;;;;;;;22.40;40.50;;;;;;5096529;28;20383;-43
2022/03/31 12:06:44;;;;;;;;;;;22.40;40.40;;;;;;5095258;28;19924;-44
2022/03/31 12:09:11;;;;;;;;;;;22.40;40.40;;;;;;5096190;28;20399;-43
2022/03/31 12:11:38;;;;;;;;;;;22.50;40.40;;;;;;5095709;28;19949;-43
2022/03/31 12:14:07;;;;;;;;;;;22.50;40.40;;;;;;5095166;28;19931;-42
2022/03/31 12:16:46;;;;;;;;;;;22.50;40.40;;;;;;5096797;28;19970;-45
2022/03/31 12:19:14;;;;;;;;;;;22.50;40.40;;;;;;5096220;28;20330;-43
2022/03/31 12:21:47;;;;;;;;;;;22.50;40.30;;;;;;5096094;28;20372;-45
2022/03/31 12:24:14;;;;;;;;;;;22.50;40.30;;;;;;5095833;28;19970;-44
2022/03/31 12:26:53;;;;;;;;;;;22.50;40.30;;;;;;5095544;28;19924;-44
2022/03/31 12:29:21;;;;;;;;;;;22.50;40.30;;;;;;5077016;28;19935;-46
2022/03/31 12:31:58;;;;;;;;;;;22.50;40.30;;;;;;5095826;28;19924;-43
2022/03/31 12:34:25;;;;;;;;;;;22.50;40.40;;;;;;5096523;28;19924;-42
2022/03/31 12:36:53;;;;;;;;;;;22.50;40.30;;;;;;5077791;28;19963;-48
2022/03/31 12:39:20;;;;;;;;;;;22.50;40.30;;;;;;5095292;28;20367;-44
2022/03/31 12:41:51;;;;;;;;;;;22.50;40.30;;;;;;5095820;28;19924;-50
2022/03/31 12:44:21;;;;;;;;;;;22.50;40.30;;;;;;5094696;28;19924;-48
2022/03/31 12:46:53;;;;;;;;;;;22.50;40.30;;;;;;5095707;28;20321;-45
2022/03/31 12:49:22;;;;;;;;;;;22.50;40.20;;;;;;5095688;28;20008;-50
2022/03/31 12:51:59;;;;;;;;;;;22.50;40.50;;;;;;5095114;28;20339;-48
2022/03/31 12:54:28;;;;;;;;;;;22.50;40.30;;;;;;5095987;28;19931;-48
2022/03/31 12:56:57;;;;;;;;;;;22.50;40.30;;;;;;5095419;28;20303;-47
2022/03/31 12:59:26;;;;;;;;;;;22.50;40.30;;;;;;5094658;28;19924;-48
2022/03/31 13:02:06;;;;;;;;;;;22.50;40.30;;;;;;5095471;28;19931;-45
2022/03/31 13:04:43;;;;;;;;;;;22.50;40.40;;;;;;5094961;28;19924;-48
2022/03/31 13:07:12;;;;;;;;;;;22.50;40.30;;;;;;5095031;28;19927;-47
2022/03/31 13:09:39;;;;;;;;;;;22.50;40.40;;;;;;5095312;28;19924;-46
2022/03/31 13:12:09;;;;;;;;;;;22.50;40.40;;;;;;5094899;28;19993;-45
2022/03/31 13:14:41;;;;;;;;;;;22.50;40.40;;;;;;5094125;28;19928;-47
2022/03/31 13:17:08;;;;;;;;;;;22.50;40.50;;;;;;5094592;28;19924;-48
2022/03/31 13:19:36;;;;;;;;;;;22.50;40.50;;;;;;5095644;28;19963;-44
2022/03/31 13:22:04;;;;;;;;;;;22.50;40.50;;;;;;5094650;28;19924;-49
2022/03/31 13:24:31;;;;;;;;;;;22.50;40.50;;;;;;5094671;28;20383;-45
2022/03/31 13:26:58;;;;;;;;;;;22.50;40.50;;;;;;5077194;28;20345;-48
2022/03/31 13:29:26;;;;;;;;;;;22.40;40.40;;;;;;5093759;28;19924;-44
2022/03/31 13:31:53;;;;;;;;;;;22.50;40.50;;;;;;5093793;28;19943;-43
2022/03/31 13:34:22;;;;;;;;;;;22.40;40.50;;;;;;5094644;28;19969;-44
2022/03/31 13:36:49;;;;;;;;;;;22.40;40.50;;;;;;5094544;28;19924;-47
2022/03/31 13:39:16;;;;;;;;;;;22.40;40.50;;;;;;5094791;28;20291;-45
2022/03/31 13:41:45;;;;;;;;;;;22.40;40.50;;;;;;5094487;28;19963;-44
2022/03/31 13:44:12;;;;;;;;;;;22.40;40.50;;;;;;5093830;28;19924;-43
2022/03/31 13:46:41;;;;;;;;;;;22.40;40.60;;;;;;5094397;28;19978;-43
2022/03/31 13:49:09;;;;;;;;;;;22.50;40.60;;;;;;5094290;28;19924;-43
2022/03/31 13:51:36;;;;;;;;;;;22.40;40.60;;;;;;5094301;28;20346;-44
2022/03/31 13:54:07;;;;;;;;;;;22.40;40.60;;;;;;5076220;28;19973;-45
2022/03/31 13:56:34;;;;;;;;;;;22.40;40.50;;;;;;5094375;28;20383;-43
2022/03/31 14:01:49;;;;;;;;;;;22.40;40.50;;;;;;5074136;28;19977;-44
2022/03/31 14:04:16;;;;;;;;;;;22.50;40.60;;;;;;5073787;28;19936;-42
2022/03/31 14:06:43;;;;;;;;;;;22.50;40.60;;;;;;5074024;28;19940;-46
2022/03/31 14:09:13;;;;;;;;;;;22.50;40.60;;;;;;5073740;28;19947;-42
2022/03/31 14:11:40;;;;;;;;;;;22.40;40.50;;;;;;5073922;28;19924;-43
2022/03/31 14:14:10;;;;;;;;;;;22.50;40.60;;;;;;5055912;28;20369;-45
2022/03/31 14:16:40;;;;;;;;;;;22.40;40.50;;;;;;5093065;28;19978;-44
2022/03/31 14:19:11;;;;;;;;;;;22.40;40.60;;;;;;5093665;28;20379;-44
2022/03/31 14:21:39;;;;;;;;;;;22.40;40.60;;;;;;5093781;28;19973;-47
2022/03/31 14:24:08;;;;;;;;;;;22.40;40.60;;;;;;5093586;28;20018;-43
2022/03/31 14:26:40;;;;;;;;;;;22.40;40.60;;;;;;5093852;28;20018;-42
2022/03/31 14:29:09;;;;;;;;;;;22.40;40.60;;;;;;5093268;28;19930;-42
2022/03/31 14:31:36;;;;;;;;;;;22.40;40.60;;;;;;5093083;28;20361;-46